Time;durP1;ratioP1;P1;durP2;ratioP2;P2;SDS_P1;SDS_P2;PMS_P1;PMS_P2;Temp;Humidity;BMP_temperature;BMP_pressure;BME280_temperature;BME280_humidity;BME280_pressure;Samples;Min_cycle;Max_cycle;Signal;HPM_P1;HPM_P2
2021/10/19 00:00:12;;;;;;;23.95;14.30;;;11.70;99.90;;;;;;5072806;28;20405;-79
2021/10/19 00:02:38;;;;;;;25.08;13.38;;;11.70;99.90;;;;;;5104302;27;20051;-79
2021/10/19 00:05:05;;;;;;;23.48;14.05;;;11.70;99.90;;;;;;5106859;28;20050;-79
2021/10/19 00:07:31;;;;;;;23.42;13.15;;;11.70;99.90;;;;;;5107013;28;20046;-79
2021/10/19 00:09:57;;;;;;;20.48;14.05;;;11.70;99.90;;;;;;5080311;28;20043;-79
2021/10/19 00:12:23;;;;;;;25.40;15.30;;;11.70;99.90;;;;;;5087547;28;20185;-79
2021/10/19 00:14:49;;;;;;;24.60;14.07;;;11.70;99.90;;;;;;5104163;28;20036;-79
2021/10/19 00:17:15;;;;;;;25.48;13.40;;;11.70;99.90;;;;;;5106163;28;20074;-79
2021/10/19 00:19:41;;;;;;;24.85;14.35;;;11.70;99.90;;;;;;5093808;28;20509;-79
2021/10/19 00:22:07;;;;;;;23.33;15.23;;;11.70;99.90;;;;;;5104345;28;20431;-79
2021/10/19 00:24:32;;;;;;;25.65;15.02;;;11.70;99.90;;;;;;5105268;28;20352;-79
2021/10/19 00:26:58;;;;;;;26.02;14.70;;;11.70;99.90;;;;;;5079912;28;20481;-79
2021/10/19 00:29:24;;;;;;;23.33;14.10;;;11.70;99.90;;;;;;5094264;28;20083;-79
2021/10/19 00:31:52;;;;;;;20.75;15.18;;;11.60;99.90;;;;;;5099961;28;20045;-79
2021/10/19 00:34:18;;;;;;;27.75;14.57;;;11.70;99.90;;;;;;5079175;28;20062;-79
2021/10/19 00:36:44;;;;;;;22.45;14.57;;;11.70;99.90;;;;;;5068960;28;20040;-79
2021/10/19 00:39:09;;;;;;;25.98;15.07;;;11.70;99.90;;;;;;5090184;28;20097;-79
2021/10/19 00:41:35;;;;;;;25.65;15.15;;;11.70;99.90;;;;;;5068425;28;20039;-79
2021/10/19 00:44:01;;;;;;;25.67;15.65;;;11.70;99.90;;;;;;5092760;28;20035;-79
2021/10/19 00:46:27;;;;;;;24.30;15.65;;;11.70;99.90;;;;;;5106455;28;20046;-79
2021/10/19 00:48:52;;;;;;;20.98;13.80;;;11.70;99.90;;;;;;5088368;28;20342;-79
2021/10/19 00:51:18;;;;;;;24.80;15.23;;;11.70;99.90;;;;;;5106416;28;20053;-78
2021/10/19 00:53:44;;;;;;;21.95;13.90;;;11.70;99.90;;;;;;5102206;28;20094;-79
2021/10/19 00:56:10;;;;;;;26.50;15.18;;;11.80;99.90;;;;;;5106868;28;20532;-78
2021/10/19 00:58:40;;;;;;;28.30;15.13;;;11.80;99.90;;;;;;5087641;28;20043;-79
2021/10/19 01:01:07;;;;;;;23.23;15.00;;;11.80;99.90;;;;;;5093044;28;20035;-79
2021/10/19 01:03:33;;;;;;;26.75;15.00;;;11.80;99.90;;;;;;5068186;28;20332;-79
2021/10/19 01:06:01;;;;;;;24.27;15.82;;;11.80;99.90;;;;;;5086930;28;20497;-78
2021/10/19 01:08:28;;;;;;;24.17;15.73;;;11.80;99.90;;;;;;5105598;28;20039;-78
2021/10/19 01:10:55;;;;;;;28.65;15.48;;;11.70;99.90;;;;;;5089798;28;20060;-79
2021/10/19 01:13:21;;;;;;;27.27;15.07;;;11.70;99.90;;;;;;5105387;28;20122;-79
2021/10/19 01:15:49;;;;;;;22.17;14.38;;;11.60;99.90;;;;;;5104146;28;20051;-79
2021/10/19 01:18:17;;;;;;;27.75;15.48;;;11.70;99.90;;;;;;5105083;28;20044;-78
2021/10/19 01:20:43;;;;;;;24.45;14.65;;;11.60;99.90;;;;;;5105056;28;20050;-79
2021/10/19 01:23:10;;;;;;;22.50;14.93;;;11.70;99.90;;;;;;5105214;28;20042;-79
2021/10/19 01:25:37;;;;;;;25.85;16.30;;;11.70;99.90;;;;;;5106921;28;20043;-78
2021/10/19 01:28:06;;;;;;;26.98;15.55;;;11.70;99.90;;;;;;5104050;28;20032;-78
2021/10/19 01:30:38;;;;;;;28.08;15.13;;;11.60;99.90;;;;;;5105709;28;20051;-79
2021/10/19 01:33:04;;;;;;;26.75;16.05;;;11.70;99.90;;;;;;5104305;28;20039;-78
2021/10/19 01:35:35;;;;;;;23.95;14.45;;;11.70;99.90;;;;;;5088620;28;20138;-78
2021/10/19 01:38:02;;;;;;;24.35;15.73;;;11.70;99.90;;;;;;5104824;28;20104;-79
2021/10/19 01:40:28;;;;;;;21.15;14.63;;;11.70;99.90;;;;;;5104796;28;20035;-78
2021/10/19 01:42:53;;;;;;;22.80;15.23;;;11.70;99.90;;;;;;5105887;28;20107;-78
2021/10/19 01:45:19;;;;;;;21.48;15.25;;;11.80;99.90;;;;;;5103516;28;20051;-78
2021/10/19 01:47:45;;;;;;;26.92;15.82;;;11.80;99.90;;;;;;5088937;28;20054;-78
2021/10/19 01:50:13;;;;;;;25.17;16.02;;;11.80;99.90;;;;;;5087137;28;20042;-78
2021/10/19 01:52:40;;;;;;;24.75;14.85;;;11.80;99.90;;;;;;5088375;28;20040;-78
2021/10/19 01:55:07;;;;;;;26.52;15.00;;;11.80;99.90;;;;;;5104944;28;20086;-78
2021/10/19 01:57:34;;;;;;;25.05;15.88;;;11.80;99.90;;;;;;5087589;28;20051;-79
2021/10/19 02:00:01;;;;;;;23.15;14.77;;;11.80;99.90;;;;;;5105714;28;20393;-79
2021/10/19 02:02:27;;;;;;;25.02;16.02;;;11.80;99.90;;;;;;5086740;28;20085;-79
2021/10/19 02:04:53;;;;;;;25.63;16.70;;;11.90;99.90;;;;;;5088940;28;20094;-79
2021/10/19 02:07:19;;;;;;;29.50;15.52;;;11.90;99.90;;;;;;5086949;28;20501;-79
2021/10/19 02:09:45;;;;;;;29.65;15.70;;;11.90;99.90;;;;;;5116003;28;20089;-79
2021/10/19 02:12:11;;;;;;;29.05;15.38;;;12.00;99.90;;;;;;5086095;28;20090;-79
2021/10/19 02:14:36;;;;;;;20.17;15.35;;;12.00;99.90;;;;;;5104837;28;20040;-79
2021/10/19 02:17:03;;;;;;;21.70;14.88;;;12.00;99.90;;;;;;5088302;28;20092;-79
2021/10/19 02:19:29;;;;;;;23.83;15.82;;;12.00;99.90;;;;;;5103845;28;20448;-78
2021/10/19 02:21:56;;;;;;;21.80;15.00;;;12.10;99.90;;;;;;5106197;28;20459;-79
2021/10/19 02:24:22;;;;;;;26.10;15.52;;;12.10;99.90;;;;;;5103318;28;20047;-79
2021/10/19 02:26:49;;;;;;;30.13;15.32;;;12.10;99.90;;;;;;5105422;28;20373;-79
2021/10/19 02:29:16;;;;;;;25.90;15.25;;;12.10;99.90;;;;;;5103909;28;20338;-79
2021/10/19 02:31:43;;;;;;;26.92;14.45;;;12.10;99.90;;;;;;5104550;28;20503;-79
2021/10/19 02:34:09;;;;;;;23.50;15.02;;;12.10;99.90;;;;;;5104611;28;20072;-79
2021/10/19 02:36:35;;;;;;;22.70;15.05;;;12.20;99.90;;;;;;5104409;28;20062;-79
2021/10/19 02:39:01;;;;;;;26.88;14.55;;;12.20;99.90;;;;;;5107063;28;20044;-79
2021/10/19 02:41:27;;;;;;;27.48;15.05;;;12.20;99.90;;;;;;5106982;28;20405;-78
2021/10/19 02:43:53;;;;;;;25.20;14.50;;;12.20;99.90;;;;;;5109379;28;20130;-79
2021/10/19 02:46:21;;;;;;;22.83;15.20;;;12.30;99.90;;;;;;5107571;28;20120;-79
2021/10/19 02:48:47;;;;;;;19.45;14.55;;;12.30;99.90;;;;;;5083629;28;20048;-78
2021/10/19 02:51:13;;;;;;;25.25;15.75;;;12.30;99.90;;;;;;5108005;28;20044;-79
2021/10/19 02:53:39;;;;;;;25.35;14.98;;;12.30;99.90;;;;;;5108065;28;20039;-79
2021/10/19 02:56:04;;;;;;;32.13;16.17;;;12.30;99.90;;;;;;5115599;27;20048;-79
2021/10/19 02:58:30;;;;;;;25.98;14.38;;;12.30;99.90;;;;;;5086316;28;20042;-79
2021/10/19 03:00:56;;;;;;;34.75;15.35;;;12.40;99.90;;;;;;5109036;28;20040;-79
2021/10/19 03:03:21;;;;;;;22.98;14.20;;;12.30;99.90;;;;;;5107228;28;20051;-79
2021/10/19 03:05:47;;;;;;;23.55;15.35;;;12.40;99.90;;;;;;5091179;28;20036;-78
2021/10/19 03:08:13;;;;;;;21.50;14.00;;;12.40;99.90;;;;;;5107239;28;20051;-78
2021/10/19 03:10:39;;;;;;;20.70;14.15;;;12.40;99.90;;;;;;5102806;28;20059;-79
2021/10/19 03:13:04;;;;;;;28.33;14.73;;;12.40;99.90;;;;;;5074371;28;20048;-79
2021/10/19 03:15:30;;;;;;;24.33;14.35;;;12.40;99.90;;;;;;5090296;28;20047;-79
2021/10/19 03:17:56;;;;;;;24.92;14.55;;;12.40;99.90;;;;;;5108481;28;20043;-79
2021/10/19 03:20:22;;;;;;;20.00;14.45;;;12.40;99.90;;;;;;5073358;28;20058;-79
2021/10/19 03:22:47;;;;;;;26.20;15.45;;;12.40;99.90;;;;;;5107880;28;20314;-79
2021/10/19 03:25:13;;;;;;;22.73;15.00;;;12.40;99.90;;;;;;5107183;28;20046;-79
2021/10/19 03:27:39;;;;;;;21.00;14.20;;;12.40;99.90;;;;;;5090818;28;20044;-79
2021/10/19 03:30:06;;;;;;;26.38;14.85;;;12.40;99.90;;;;;;5107441;28;20031;-79
2021/10/19 03:32:32;;;;;;;29.20;15.68;;;12.30;99.90;;;;;;5090097;28;20077;-79
2021/10/19 03:34:58;;;;;;;27.63;15.35;;;12.30;99.90;;;;;;5107870;28;20061;-79
2021/10/19 03:37:25;;;;;;;25.92;14.82;;;12.30;99.90;;;;;;5090462;28;20050;-79
2021/10/19 03:39:50;;;;;;;26.88;14.70;;;12.30;99.90;;;;;;5091941;28;20083;-79
2021/10/19 03:42:17;;;;;;;25.17;14.25;;;12.30;99.90;;;;;;5086327;28;20508;-79
2021/10/19 03:44:43;;;;;;;18.67;13.77;;;12.30;99.90;;;;;;5082674;28;20087;-79
2021/10/19 03:47:09;;;;;;;26.80;14.25;;;12.30;99.90;;;;;;5096182;28;20082;-78
2021/10/19 03:49:34;;;;;;;25.13;15.48;;;12.30;99.90;;;;;;5069569;28;20079;-78
2021/10/19 03:52:00;;;;;;;21.60;14.65;;;12.30;99.90;;;;;;5086693;28;20063;-78
2021/10/19 03:54:26;;;;;;;21.73;14.77;;;12.30;99.90;;;;;;5086616;28;20040;-78
2021/10/19 03:56:52;;;;;;;26.80;15.30;;;12.30;99.90;;;;;;5086698;28;20078;-78
2021/10/19 03:59:18;;;;;;;22.20;15.38;;;12.30;99.90;;;;;;5088456;28;20123;-79
2021/10/19 04:01:43;;;;;;;21.92;13.88;;;12.30;99.90;;;;;;5091152;28;20053;-79
2021/10/19 04:04:09;;;;;;;24.17;15.55;;;12.30;99.90;;;;;;5060637;28;20043;-79
2021/10/19 04:06:35;;;;;;;23.50;14.52;;;12.30;99.90;;;;;;5092539;28;20044;-79
2021/10/19 04:09:01;;;;;;;17.13;14.27;;;12.30;99.90;;;;;;5068967;28;20035;-79
2021/10/19 04:11:27;;;;;;;20.30;14.60;;;12.30;99.90;;;;;;5093606;28;20097;-79
2021/10/19 04:13:52;;;;;;;20.27;14.63;;;12.40;99.90;;;;;;5106551;28;20040;-79
2021/10/19 04:16:18;;;;;;;21.02;14.32;;;12.40;99.90;;;;;;5089250;28;20046;-79
2021/10/19 04:18:44;;;;;;;26.10;15.70;;;12.40;99.90;;;;;;5106872;28;20120;-79
2021/10/19 04:21:10;;;;;;;26.10;15.35;;;12.40;99.90;;;;;;5088912;28;20130;-79
2021/10/19 04:23:36;;;;;;;21.48;14.35;;;12.40;99.90;;;;;;5106829;28;20036;-79
2021/10/19 04:26:02;;;;;;;24.67;14.30;;;12.40;99.90;;;;;;5088698;28;20040;-79
2021/10/19 04:28:28;;;;;;;19.63;13.98;;;12.40;99.90;;;;;;5106984;28;20116;-79
2021/10/19 04:30:54;;;;;;;24.52;15.75;;;12.40;99.90;;;;;;5089023;28;20075;-79
2021/10/19 04:33:19;;;;;;;22.73;15.13;;;12.40;99.90;;;;;;5106194;28;20039;-79
2021/10/19 04:35:46;;;;;;;22.83;15.45;;;12.40;99.90;;;;;;5106628;28;20051;-79
2021/10/19 04:38:12;;;;;;;25.13;15.80;;;12.40;99.90;;;;;;5088604;28;20172;-79
2021/10/19 04:40:38;;;;;;;23.73;14.63;;;12.40;99.90;;;;;;5089556;28;20058;-79
2021/10/19 04:43:04;;;;;;;24.45;14.48;;;12.40;99.90;;;;;;5088299;28;20489;-78
2021/10/19 04:45:29;;;;;;;20.77;14.70;;;12.50;99.90;;;;;;5107431;28;20059;-79
2021/10/19 04:47:57;;;;;;;25.75;14.73;;;12.50;99.90;;;;;;5088740;28;20496;-79
2021/10/19 04:50:23;;;;;;;20.98;14.43;;;12.50;99.90;;;;;;5106333;28;20039;-78
2021/10/19 04:52:49;;;;;;;23.63;14.38;;;12.50;99.90;;;;;;5106448;28;20396;-79
2021/10/19 04:55:15;;;;;;;18.77;14.68;;;12.50;99.90;;;;;;5105352;28;20118;-79
2021/10/19 04:57:41;;;;;;;27.42;13.63;;;12.50;99.90;;;;;;5105767;28;20497;-78
2021/10/19 05:00:07;;;;;;;21.25;14.25;;;12.60;99.90;;;;;;5105359;28;20115;-79
2021/10/19 05:02:32;;;;;;;20.33;14.85;;;12.60;99.90;;;;;;5089230;28;20118;-79
2021/10/19 05:04:58;;;;;;;23.63;15.52;;;12.60;99.90;;;;;;5104501;28;20716;-79
2021/10/19 05:07:24;;;;;;;23.27;14.68;;;12.60;99.90;;;;;;5089452;28;20039;-78
2021/10/19 05:09:50;;;;;;;22.33;14.90;;;12.60;99.90;;;;;;5102096;28;20031;-78
2021/10/19 05:12:15;;;;;;;26.83;14.45;;;12.60;99.90;;;;;;5104733;28;20044;-78
2021/10/19 05:14:41;;;;;;;21.45;15.05;;;12.60;99.90;;;;;;5105615;28;20055;-78
2021/10/19 05:17:08;;;;;;;22.40;14.52;;;12.60;99.90;;;;;;5088008;28;20132;-78
2021/10/19 05:19:34;;;;;;;20.55;15.52;;;12.60;99.90;;;;;;5107651;28;20048;-78
2021/10/19 05:21:59;;;;;;;20.48;13.93;;;12.70;99.90;;;;;;5067336;28;20062;-79
2021/10/19 05:24:25;;;;;;;23.05;14.15;;;12.70;99.90;;;;;;5101764;28;20039;-79
2021/10/19 05:26:51;;;;;;;21.05;14.38;;;12.70;99.90;;;;;;5104218;28;20043;-79
2021/10/19 05:29:16;;;;;;;22.92;15.00;;;12.70;99.90;;;;;;5088733;28;20120;-78
2021/10/19 05:31:42;;;;;;;20.77;14.90;;;12.70;99.90;;;;;;5099453;28;20126;-79
2021/10/19 05:34:08;;;;;;;22.00;14.48;;;12.70;99.90;;;;;;5096146;28;20031;-78
2021/10/19 05:36:34;;;;;;;20.10;13.88;;;12.70;99.90;;;;;;5106088;28;20039;-78
2021/10/19 05:38:59;;;;;;;22.88;15.15;;;12.70;99.90;;;;;;5087194;28;20043;-79
2021/10/19 05:41:25;;;;;;;23.70;15.75;;;12.70;99.90;;;;;;5069657;28;20058;-78
2021/10/19 05:43:51;;;;;;;19.83;14.55;;;12.70;99.90;;;;;;5104273;28;20093;-78
2021/10/19 05:46:16;;;;;;;22.52;15.45;;;12.70;99.90;;;;;;5069087;28;20072;-78
2021/10/19 05:48:42;;;;;;;28.38;15.95;;;12.70;99.90;;;;;;5088068;28;20370;-79
2021/10/19 05:51:08;;;;;;;25.05;15.50;;;12.70;99.90;;;;;;5067476;28;20485;-78
2021/10/19 05:53:33;;;;;;;22.35;14.40;;;12.70;99.90;;;;;;5103468;28;20434;-78
2021/10/19 05:55:59;;;;;;;25.85;14.63;;;12.70;99.90;;;;;;5103759;28;20049;-79
2021/10/19 05:58:25;;;;;;;23.23;14.45;;;12.70;99.90;;;;;;5088779;28;20417;-79
2021/10/19 06:00:51;;;;;;;19.85;15.23;;;12.80;99.90;;;;;;5103348;28;20036;-79
2021/10/19 06:03:17;;;;;;;27.83;16.27;;;12.70;99.90;;;;;;5105629;28;20047;-79
2021/10/19 06:05:42;;;;;;;23.35;14.90;;;12.80;99.90;;;;;;5104537;28;20044;-79
2021/10/19 06:08:08;;;;;;;25.20;15.05;;;12.80;99.90;;;;;;5104616;28;20039;-79
2021/10/19 06:10:34;;;;;;;22.55;14.80;;;12.80;99.90;;;;;;5074320;28;20130;-79
2021/10/19 06:12:59;;;;;;;24.55;15.52;;;12.80;99.90;;;;;;5088595;28;20074;-78
2021/10/19 06:15:26;;;;;;;27.20;15.25;;;12.80;99.90;;;;;;5095762;27;20074;-78
2021/10/19 06:17:53;;;;;;;25.90;15.38;;;12.80;99.90;;;;;;5110107;28;20126;-79
2021/10/19 06:20:20;;;;;;;25.85;15.57;;;12.80;99.90;;;;;;5075274;28;20127;-79
2021/10/19 06:22:45;;;;;;;25.83;16.35;;;12.80;99.90;;;;;;5106671;28;20207;-78
2021/10/19 06:25:11;;;;;;;27.58;16.25;;;12.80;99.90;;;;;;5074219;28;20094;-78
2021/10/19 06:27:37;;;;;;;37.72;16.75;;;12.80;99.90;;;;;;5105723;28;20100;-78
2021/10/19 06:30:04;;;;;;;33.20;16.88;;;12.80;99.90;;;;;;5110693;28;20047;-78
2021/10/19 06:32:30;;;;;;;31.17;17.30;;;12.80;99.90;;;;;;5069110;28;20075;-79
2021/10/19 06:34:56;;;;;;;31.13;16.90;;;12.80;99.90;;;;;;5091232;28;20458;-79
2021/10/19 06:37:21;;;;;;;30.42;17.13;;;12.80;99.90;;;;;;5112028;28;20092;-80
2021/10/19 06:39:47;;;;;;;28.60;16.83;;;12.80;99.90;;;;;;5110466;28;20096;-79
2021/10/19 06:42:13;;;;;;;30.60;17.60;;;12.70;99.90;;;;;;5111136;28;20103;-79
2021/10/19 06:44:38;;;;;;;32.70;18.25;;;12.70;99.90;;;;;;5093048;28;20486;-79
2021/10/19 06:47:04;;;;;;;25.20;17.00;;;12.70;99.90;;;;;;5093955;28;20047;-79
2021/10/19 06:49:30;;;;;;;31.35;17.92;;;12.70;99.90;;;;;;5092495;28;20088;-79
2021/10/19 06:51:56;;;;;;;28.27;17.00;;;12.70;99.90;;;;;;5089707;28;20080;-79
2021/10/19 06:54:21;;;;;;;29.83;17.40;;;12.80;99.90;;;;;;5089288;28;20051;-79
2021/10/19 06:56:47;;;;;;;24.98;16.88;;;12.80;99.90;;;;;;5095758;28;20043;-79
2021/10/19 06:59:13;;;;;;;30.90;17.40;;;12.80;99.90;;;;;;5094801;28;20139;-79
2021/10/19 07:01:38;;;;;;;23.33;16.27;;;12.80;99.90;;;;;;5103404;28;20047;-79
2021/10/19 07:04:04;;;;;;;36.22;18.10;;;12.80;99.90;;;;;;5090851;28;20055;-79
2021/10/19 07:06:30;;;;;;;30.70;17.20;;;12.90;99.90;;;;;;5104962;28;20039;-78
2021/10/19 07:08:56;;;;;;;29.83;17.75;;;12.90;99.90;;;;;;5105899;27;20043;-79
2021/10/19 07:11:26;;;;;;;48.53;18.55;;;12.90;99.90;;;;;;5095514;28;20569;-79
2021/10/19 07:13:55;;;;;;;37.38;18.88;;;12.90;99.90;;;;;;5092521;28;20044;-78
2021/10/19 07:16:21;;;;;;;27.98;17.85;;;12.90;99.90;;;;;;5097177;28;20156;-79
2021/10/19 07:18:47;;;;;;;30.95;17.38;;;12.90;99.90;;;;;;5106536;27;20047;-78
2021/10/19 07:21:13;;;;;;;32.45;17.88;;;12.90;99.90;;;;;;5090565;28;20381;-78
2021/10/19 07:23:39;;;;;;;33.00;18.02;;;12.90;99.90;;;;;;5095092;28;20103;-78
2021/10/19 07:26:04;;;;;;;27.70;18.55;;;12.90;99.90;;;;;;5087143;28;20420;-78
2021/10/19 07:28:30;;;;;;;37.60;19.92;;;13.00;99.90;;;;;;5099491;28;20044;-79
2021/10/19 07:30:56;;;;;;;36.83;18.60;;;13.00;99.90;;;;;;5095322;28;20070;-78
2021/10/19 07:33:21;;;;;;;38.47;20.70;;;13.00;99.90;;;;;;5105196;27;20580;-80
2021/10/19 07:35:47;;;;;;;38.30;20.50;;;13.00;99.90;;;;;;5073439;28;20082;-80
2021/10/19 07:38:13;;;;;;;35.85;20.35;;;13.00;99.90;;;;;;5081883;28;20120;-79
2021/10/19 07:40:39;;;;;;;38.72;21.00;;;13.00;99.90;;;;;;5100482;28;20040;-79
2021/10/19 07:43:05;;;;;;;37.97;20.85;;;13.00;99.90;;;;;;5104525;28;20051;-78
2021/10/19 07:45:31;;;;;;;39.85;20.98;;;13.00;99.90;;;;;;5097415;28;20496;-79
2021/10/19 07:48:01;;;;;;;42.30;22.83;;;13.10;99.90;;;;;;5092044;28;20039;-78
2021/10/19 07:50:29;;;;;;;;;;;13.10;99.90;;;;;;5088301;28;20048;-78
2021/10/19 07:53:00;;;;;;;44.03;23.40;;;13.10;99.90;;;;;;5068949;28;19924;-78
2021/10/19 07:55:27;;;;;;;44.28;24.08;;;13.10;99.90;;;;;;5087770;28;20043;-78
2021/10/19 07:57:54;;;;;;;46.65;23.67;;;13.10;99.90;;;;;;5086292;28;20039;-78
2021/10/19 08:00:25;;;;;;;39.15;21.70;;;13.20;99.90;;;;;;5087069;28;20432;-78
2021/10/19 08:02:52;;;;;;;33.25;20.67;;;13.20;99.90;;;;;;5097212;28;20181;-78
2021/10/19 08:05:18;;;;;;;40.95;21.80;;;13.20;99.90;;;;;;5085496;28;20044;-78
2021/10/19 08:07:50;;;;;;;37.47;21.35;;;13.30;99.90;;;;;;5070757;28;20041;-78
2021/10/19 08:10:23;;;;;;;32.60;20.10;;;13.30;99.90;;;;;;5068484;28;20040;-78
2021/10/19 08:12:50;;;;;;;33.60;19.90;;;13.40;99.90;;;;;;5100900;28;20070;-78
2021/10/19 08:15:17;;;;;;;43.15;20.40;;;13.40;99.90;;;;;;5085032;28;20511;-79
2021/10/19 08:17:43;;;;;;;38.10;20.15;;;13.40;99.90;;;;;;5098692;28;20074;-78
2021/10/19 08:20:10;;;;;;;32.65;19.48;;;13.40;99.90;;;;;;5104024;28;20039;-79
2021/10/19 08:22:36;;;;;;;31.45;17.92;;;13.40;99.90;;;;;;5103659;28;20104;-78
2021/10/19 08:25:05;;;;;;;33.88;18.27;;;13.50;99.90;;;;;;5087512;28;20040;-78
2021/10/19 08:27:32;;;;;;;31.50;17.65;;;13.50;99.90;;;;;;5102111;28;20036;-79
2021/10/19 08:29:58;;;;;;;30.08;18.60;;;13.60;99.90;;;;;;5098665;28;20051;-79
2021/10/19 08:32:24;;;;;;;23.58;16.83;;;13.60;99.90;;;;;;5093662;28;20040;-78
2021/10/19 08:34:50;;;;;;;27.02;17.45;;;13.60;99.90;;;;;;5098627;28;20039;-78
2021/10/19 08:37:15;;;;;;;21.15;15.98;;;13.70;99.90;;;;;;5092403;28;20398;-78
2021/10/19 08:39:42;;;;;;;22.25;16.02;;;13.70;99.90;;;;;;5085799;28;20043;-79
2021/10/19 08:42:08;;;;;;;30.45;17.33;;;13.80;99.90;;;;;;5088072;28;20151;-78
2021/10/19 08:44:34;;;;;;;25.48;16.52;;;13.90;99.90;;;;;;5068206;28;20047;-82
2021/10/19 08:47:01;;;;;;;22.75;15.00;;;13.90;99.90;;;;;;5080445;28;20040;-81
2021/10/19 08:49:27;;;;;;;29.08;18.48;;;13.90;99.90;;;;;;5072534;28;20144;-82
2021/10/19 08:51:52;;;;;;;22.65;15.68;;;14.00;99.90;;;;;;5069085;28;20512;-82
2021/10/19 08:54:18;;;;;;;25.73;15.68;;;14.00;99.90;;;;;;5073620;28;20044;-82
2021/10/19 08:56:44;;;;;;;24.50;15.32;;;14.10;99.90;;;;;;5069123;28;20050;-82
2021/10/19 08:59:12;;;;;;;18.80;14.43;;;14.10;99.90;;;;;;5085927;28;20503;-82
2021/10/19 09:01:39;;;;;;;23.75;15.43;;;14.20;99.90;;;;;;5072957;28;20036;-81
2021/10/19 09:04:11;;;;;;;21.05;15.07;;;14.20;99.90;;;;;;5096549;28;20051;-82
2021/10/19 09:06:39;;;;;;;24.58;15.40;;;14.20;99.90;;;;;;5087185;28;20385;-81
2021/10/19 09:09:16;;;;;;;22.40;16.25;;;14.20;99.90;;;;;;5083434;28;20050;-80
2021/10/19 09:11:47;;;;;;;30.80;15.52;;;14.20;99.90;;;;;;5085132;28;20051;-80
2021/10/19 09:14:14;;;;;;;24.25;15.95;;;14.30;99.90;;;;;;5069073;28;20124;-81
2021/10/19 09:16:42;;;;;;;23.50;14.30;;;14.30;99.90;;;;;;5081685;28;20047;-82
2021/10/19 09:19:09;;;;;;;20.52;15.30;;;14.30;99.90;;;;;;5088576;28;20041;-82
2021/10/19 09:21:36;;;;;;;24.05;14.80;;;14.30;99.90;;;;;;5085944;28;20141;-82
2021/10/19 09:24:25;;;;;;;25.00;15.40;;;14.40;99.90;;;;;;5084581;28;20111;-82
2021/10/19 09:26:52;;;;;;;21.38;15.10;;;14.40;99.90;;;;;;5094484;28;20512;-82
2021/10/19 09:29:17;;;;;;;22.77;14.52;;;14.40;99.90;;;;;;5079382;28;20036;-82
2021/10/19 09:31:43;;;;;;;23.85;14.13;;;14.40;99.90;;;;;;5069984;28;20036;-82
2021/10/19 09:34:13;;;;;;;17.48;13.35;;;14.50;99.90;;;;;;5085085;28;20044;-82
2021/10/19 09:36:39;;;;;;;18.38;13.65;;;14.50;99.90;;;;;;5083852;28;20055;-81
2021/10/19 09:39:05;;;;;;;20.63;13.85;;;14.50;99.90;;;;;;5069045;28;20149;-82
2021/10/19 09:41:44;;;;;;;18.52;13.10;;;14.50;99.90;;;;;;5063254;28;20051;-82
2021/10/19 09:44:16;;;;;;;18.15;12.60;;;14.50;99.90;;;;;;5067841;28;20040;-82
2021/10/19 09:46:42;;;;;;;18.08;12.88;;;14.60;99.90;;;;;;5070368;28;20066;-81
2021/10/19 09:49:14;;;;;;;18.75;12.73;;;14.60;99.90;;;;;;5101146;28;20076;-81
2021/10/19 09:51:40;;;;;;;18.95;12.02;;;14.60;99.90;;;;;;5084943;28;20588;-81
2021/10/19 09:54:10;;;;;;;13.40;10.45;;;14.60;99.90;;;;;;5077309;28;20073;-81
2021/10/19 09:56:38;;;;;;;16.88;11.05;;;14.70;99.90;;;;;;5071603;28;20050;-81
2021/10/19 09:59:05;;;;;;;16.35;11.63;;;14.70;99.90;;;;;;5108724;27;20031;-81
2021/10/19 10:01:34;;;;;;;17.17;10.85;;;14.70;99.90;;;;;;5078876;27;20897;-81
2021/10/19 10:04:02;;;;;;;13.52;10.95;;;14.80;99.90;;;;;;5097671;28;20360;-81
2021/10/19 10:06:29;;;;;;;16.23;11.25;;;14.70;99.90;;;;;;5080829;28;20393;-81
2021/10/19 10:08:57;;;;;;;14.95;10.50;;;14.80;99.90;;;;;;5089998;28;20435;-81
2021/10/19 10:11:23;;;;;;;19.55;10.40;;;14.80;99.90;;;;;;5068237;28;20052;-81
2021/10/19 10:13:59;;;;;;;17.45;10.48;;;14.80;99.90;;;;;;5105551;28;20047;-81
2021/10/19 10:16:25;;;;;;;18.98;11.15;;;14.80;99.90;;;;;;5088876;28;20043;-82
2021/10/19 10:18:51;;;;;;;12.85;10.40;;;14.80;99.90;;;;;;5069623;28;20047;-82
2021/10/19 10:21:20;;;;;;;17.20;9.82;;;14.80;99.90;;;;;;5080043;28;20225;-82
2021/10/19 10:24:02;;;;;;;14.30;9.63;;;14.80;99.90;;;;;;5081973;28;20645;-82
2021/10/19 10:26:30;;;;;;;13.88;10.23;;;14.90;99.90;;;;;;5097798;28;20110;-82
2021/10/19 10:29:15;;;;;;;12.93;10.27;;;14.90;99.90;;;;;;5088173;28;20126;-82
2021/10/19 10:31:59;;;;;;;13.20;9.73;;;14.90;99.90;;;;;;5088867;28;20043;-81
2021/10/19 10:34:32;;;;;;;17.55;11.15;;;15.00;99.90;;;;;;5078692;28;20046;-81
2021/10/19 10:37:11;;;;;;;14.68;11.13;;;15.00;99.90;;;;;;5086377;28;20101;-81
2021/10/19 10:39:46;;;;;;;26.90;11.52;;;15.00;99.90;;;;;;5106939;28;20055;-80
2021/10/19 10:42:13;;;;;;;13.70;10.80;;;15.10;99.90;;;;;;5088149;28;20048;-79
2021/10/19 10:44:41;;;;;;;17.05;10.30;;;15.10;99.90;;;;;;5087555;28;20085;-79
2021/10/19 10:47:09;;;;;;;12.93;10.45;;;15.10;99.90;;;;;;5084191;28;20062;-79
2021/10/19 10:49:36;;;;;;;13.45;9.90;;;15.10;99.90;;;;;;5103431;28;20643;-79
2021/10/19 10:52:16;;;;;;;15.35;9.45;;;15.10;99.90;;;;;;5094030;28;20415;-79
2021/10/19 10:55:00;;;;;;;14.00;8.25;;;15.10;99.90;;;;;;5081709;28;20478;-79
2021/10/19 10:57:26;;;;;;;9.82;8.68;;;15.20;99.90;;;;;;5085678;28;20261;-79
2021/10/19 10:59:54;;;;;;;13.65;7.97;;;15.20;99.90;;;;;;5072039;28;20084;-79
2021/10/19 11:02:20;;;;;;;12.55;8.25;;;15.20;99.90;;;;;;5098181;28;20043;-79
2021/10/19 11:04:50;;;;;;;14.18;8.52;;;15.30;99.90;;;;;;5088419;28;20040;-79
2021/10/19 11:07:31;;;;;;;11.57;7.70;;;15.30;99.90;;;;;;5087004;28;20124;-79
2021/10/19 11:09:57;;;;;;;11.90;8.18;;;15.30;99.90;;;;;;5105525;28;20417;-79
2021/10/19 11:12:23;;;;;;;11.75;8.35;;;15.40;99.90;;;;;;5081248;28;20066;-79
2021/10/19 11:14:48;;;;;;;11.20;8.38;;;15.40;99.90;;;;;;5091933;28;20032;-79
2021/10/19 11:17:18;;;;;;;9.93;8.10;;;15.50;99.90;;;;;;5092813;28;20066;-79
2021/10/19 11:19:45;;;;;;;10.73;7.57;;;15.50;99.90;;;;;;5108902;28;20046;-79
2021/10/19 11:22:12;;;;;;;8.80;6.63;;;15.50;99.90;;;;;;5102774;28;20128;-79
2021/10/19 11:24:38;;;;;;;8.25;7.45;;;15.60;99.90;;;;;;5102877;28;20067;-79
2021/10/19 11:27:05;;;;;;;13.10;7.65;;;15.60;99.90;;;;;;5107132;28;20043;-80
2021/10/19 11:29:37;;;;;;;14.70;7.93;;;15.60;99.90;;;;;;5086810;28;20032;-79
2021/10/19 11:32:05;;;;;;;7.90;6.60;;;15.60;99.90;;;;;;5087713;28;20446;-79
2021/10/19 11:34:30;;;;;;;9.38;6.60;;;15.70;99.90;;;;;;5090112;28;20050;-79
2021/10/19 11:36:56;;;;;;;8.88;6.47;;;15.70;99.90;;;;;;5105983;28;20040;-79
2021/10/19 11:39:22;;;;;;;15.60;6.35;;;15.70;99.90;;;;;;5082143;28;20059;-79
2021/10/19 11:41:53;;;;;;;9.25;6.35;;;15.80;99.90;;;;;;5088574;28;20081;-79
2021/10/19 11:44:19;;;;;;;8.35;5.70;;;15.80;99.90;;;;;;5090036;28;20047;-79
2021/10/19 11:46:44;;;;;;;7.57;5.47;;;15.90;99.90;;;;;;5087898;28;20402;-79
2021/10/19 11:49:18;;;;;;;9.13;5.57;;;15.90;99.90;;;;;;5078438;28;20402;-79
2021/10/19 11:51:50;;;;;;;7.40;5.80;;;15.90;99.90;;;;;;5088674;28;20062;-79
2021/10/19 11:54:18;;;;;;;7.88;5.25;;;15.90;99.90;;;;;;5083693;28;20031;-79
2021/10/19 11:57:01;;;;;;;11.77;5.60;;;15.90;99.90;;;;;;5097014;28;20044;-79
2021/10/19 11:59:27;;;;;;;6.40;5.20;;;15.90;99.90;;;;;;5087497;28;20054;-79
2021/10/19 12:01:54;;;;;;;9.05;5.28;;;15.90;99.90;;;;;;5094212;28;20057;-79
2021/10/19 12:04:25;;;;;;;10.43;5.35;;;16.00;99.90;;;;;;5115124;27;20119;-79
2021/10/19 12:06:51;;;;;;;10.23;5.78;;;16.00;99.90;;;;;;5088876;28;20497;-79
2021/10/19 12:09:18;;;;;;;13.07;6.07;;;16.00;99.90;;;;;;5089519;28;20040;-79
2021/10/19 12:11:59;;;;;;;5.88;5.38;;;16.00;99.90;;;;;;5092858;28;20136;-79
2021/10/19 12:14:29;;;;;;;10.10;5.50;;;16.10;99.90;;;;;;5109153;28;20112;-79
2021/10/19 12:16:57;;;;;;;7.00;5.55;;;16.10;99.90;;;;;;5076106;28;20497;-79
2021/10/19 12:19:23;;;;;;;6.43;5.53;;;16.10;99.90;;;;;;5108535;28;20071;-79
2021/10/19 12:21:54;;;;;;;7.35;5.10;;;16.10;99.90;;;;;;5108192;28;20048;-79
2021/10/19 12:24:21;;;;;;;9.38;4.30;;;16.10;99.90;;;;;;5107124;27;20593;-79
2021/10/19 12:26:47;;;;;;;10.38;5.00;;;16.20;99.90;;;;;;5109349;28;20504;-79